sensor_id;sensor_type;location;lat;lon;timestamp;P1;durP1;ratioP1;P2;durP2;ratioP2
8139;SDS011;4111;50.972;7.072;2022-09-23T00:01:02;2.80;;;2.37;;
8139;SDS011;4111;50.972;7.072;2022-09-23T00:03:33;2.80;;;2.07;;
8139;SDS011;4111;50.972;7.072;2022-09-23T00:06:03;2.43;;;2.23;;
8139;SDS011;4111;50.972;7.072;2022-09-23T00:08:32;3.97;;;2.23;;
8139;SDS011;4111;50.972;7.072;2022-09-23T00:11:05;2.70;;;2.30;;
8139;SDS011;4111;50.972;7.072;2022-09-23T00:13:35;5.10;;;2.23;;
8139;SDS011;4111;50.972;7.072;2022-09-23T00:16:07;3.60;;;2.70;;
8139;SDS011;4111;50.972;7.072;2022-09-23T00:18:36;3.83;;;2.40;;
8139;SDS011;4111;50.972;7.072;2022-09-23T00:21:04;10.27;;;3.20;;
8139;SDS011;4111;50.972;7.072;2022-09-23T00:23:31;6.50;;;2.93;;
8139;SDS011;4111;50.972;7.072;2022-09-23T00:25:59;4.07;;;2.70;;
8139;SDS011;4111;50.972;7.072;2022-09-23T00:28:26;5.23;;;2.57;;
8139;SDS011;4111;50.972;7.072;2022-09-23T00:30:53;3.63;;;2.50;;
8139;SDS011;4111;50.972;7.072;2022-09-23T00:33:20;3.97;;;2.47;;
8139;SDS011;4111;50.972;7.072;2022-09-23T00:35:46;3.73;;;2.67;;
8139;SDS011;4111;50.972;7.072;2022-09-23T00:38:13;3.23;;;2.40;;
8139;SDS011;4111;50.972;7.072;2022-09-23T00:40:45;2.63;;;2.40;;
8139;SDS011;4111;50.972;7.072;2022-09-23T00:43:12;2.87;;;2.67;;
8139;SDS011;4111;50.972;7.072;2022-09-23T00:45:40;3.90;;;2.40;;
8139;SDS011;4111;50.972;7.072;2022-09-23T00:48:14;2.73;;;2.23;;
8139;SDS011;4111;50.972;7.072;2022-09-23T00:50:48;2.40;;;2.20;;
8139;SDS011;4111;50.972;7.072;2022-09-23T00:53:17;2.50;;;2.30;;
8139;SDS011;4111;50.972;7.072;2022-09-23T00:55:55;2.63;;;2.20;;
8139;SDS011;4111;50.972;7.072;2022-09-23T00:58:26;5.90;;;2.53;;
8139;SDS011;4111;50.972;7.072;2022-09-23T01:00:57;2.90;;;2.10;;
8139;SDS011;4111;50.972;7.072;2022-09-23T01:03:25;2.50;;;2.07;;
8139;SDS011;4111;50.972;7.072;2022-09-23T01:05:53;2.40;;;2.13;;
8139;SDS011;4111;50.972;7.072;2022-09-23T01:08:21;2.73;;;2.53;;
8139;SDS011;4111;50.972;7.072;2022-09-23T01:13:51;7.30;;;2.47;;
8139;SDS011;4111;50.972;7.072;2022-09-23T01:30:43;4.37;;;2.17;;
8139;SDS011;4111;50.972;7.072;2022-09-23T01:33:19;4.13;;;2.40;;
8139;SDS011;4111;50.972;7.072;2022-09-23T01:41:58;2.93;;;2.20;;
8139;SDS011;4111;50.972;7.072;2022-09-23T01:48:16;2.70;;;2.50;;
8139;SDS011;4111;50.972;7.072;2022-09-23T01:50:46;3.47;;;2.20;;
8139;SDS011;4111;50.972;7.072;2022-09-23T01:53:47;4.53;;;2.47;;
8139;SDS011;4111;50.972;7.072;2022-09-23T01:56:29;5.87;;;2.60;;
8139;SDS011;4111;50.972;7.072;2022-09-23T02:10:19;2.23;;;1.90;;
8139;SDS011;4111;50.972;7.072;2022-09-23T02:12:50;5.03;;;2.50;;
8139;SDS011;4111;50.972;7.072;2022-09-23T02:15:23;2.00;;;1.90;;
8139;SDS011;4111;50.972;7.072;2022-09-23T02:18:01;2.10;;;2.00;;
8139;SDS011;4111;50.972;7.072;2022-09-23T02:20:33;2.57;;;2.37;;
8139;SDS011;4111;50.972;7.072;2022-09-23T02:23:13;2.63;;;1.90;;
8139;SDS011;4111;50.972;7.072;2022-09-23T02:28:38;2.73;;;2.40;;
8139;SDS011;4111;50.972;7.072;2022-09-23T02:31:16;4.10;;;3.03;;
8139;SDS011;4111;50.972;7.072;2022-09-23T02:33:56;2.87;;;2.10;;
8139;SDS011;4111;50.972;7.072;2022-09-23T02:36:36;6.73;;;2.77;;
8139;SDS011;4111;50.972;7.072;2022-09-23T02:39:11;11.03;;;2.80;;
8139;SDS011;4111;50.972;7.072;2022-09-23T02:41:45;4.60;;;2.37;;
8139;SDS011;4111;50.972;7.072;2022-09-23T02:44:21;2.63;;;2.40;;
8139;SDS011;4111;50.972;7.072;2022-09-23T02:46:49;3.43;;;2.47;;
8139;SDS011;4111;50.972;7.072;2022-09-23T02:49:25;6.97;;;3.03;;
8139;SDS011;4111;50.972;7.072;2022-09-23T02:51:55;4.00;;;2.87;;
8139;SDS011;4111;50.972;7.072;2022-09-23T02:54:24;2.83;;;2.63;;
8139;SDS011;4111;50.972;7.072;2022-09-23T02:56:53;2.90;;;2.70;;
8139;SDS011;4111;50.972;7.072;2022-09-23T02:59:20;3.07;;;2.63;;
8139;SDS011;4111;50.972;7.072;2022-09-23T03:11:07;4.27;;;2.80;;
8139;SDS011;4111;50.972;7.072;2022-09-23T03:16:53;3.13;;;2.47;;
8139;SDS011;4111;50.972;7.072;2022-09-23T03:19:31;4.57;;;2.87;;
8139;SDS011;4111;50.972;7.072;2022-09-23T03:22:09;3.10;;;2.80;;
8139;SDS011;4111;50.972;7.072;2022-09-23T03:24:40;2.27;;;2.13;;
8139;SDS011;4111;50.972;7.072;2022-09-23T03:27:11;3.67;;;2.77;;
8139;SDS011;4111;50.972;7.072;2022-09-23T03:29:44;2.63;;;2.40;;
8139;SDS011;4111;50.972;7.072;2022-09-23T03:32:15;3.37;;;2.37;;
8139;SDS011;4111;50.972;7.072;2022-09-23T03:34:45;3.00;;;2.70;;
8139;SDS011;4111;50.972;7.072;2022-09-23T03:40:14;3.13;;;2.27;;
8139;SDS011;4111;50.972;7.072;2022-09-23T03:42:44;3.03;;;2.33;;
8139;SDS011;4111;50.972;7.072;2022-09-23T03:45:15;2.60;;;2.30;;
8139;SDS011;4111;50.972;7.072;2022-09-23T03:47:45;2.80;;;2.30;;
8139;SDS011;4111;50.972;7.072;2022-09-23T03:50:12;3.10;;;2.27;;
8139;SDS011;4111;50.972;7.072;2022-09-23T03:52:39;4.97;;;2.40;;
8139;SDS011;4111;50.972;7.072;2022-09-23T03:55:06;2.70;;;2.50;;
8139;SDS011;4111;50.972;7.072;2022-09-23T03:57:33;3.67;;;2.33;;
8139;SDS011;4111;50.972;7.072;2022-09-23T03:59:59;3.37;;;2.90;;
8139;SDS011;4111;50.972;7.072;2022-09-23T04:02:26;2.80;;;2.30;;
8139;SDS011;4111;50.972;7.072;2022-09-23T04:04:52;2.53;;;2.10;;
8139;SDS011;4111;50.972;7.072;2022-09-23T04:07:19;3.87;;;2.67;;
8139;SDS011;4111;50.972;7.072;2022-09-23T04:09:46;2.67;;;2.47;;
8139;SDS011;4111;50.972;7.072;2022-09-23T04:12:13;3.67;;;2.23;;
8139;SDS011;4111;50.972;7.072;2022-09-23T04:14:41;4.13;;;2.43;;
8139;SDS011;4111;50.972;7.072;2022-09-23T04:17:08;4.00;;;2.13;;
8139;SDS011;4111;50.972;7.072;2022-09-23T04:19:35;3.03;;;2.23;;
8139;SDS011;4111;50.972;7.072;2022-09-23T04:22:01;4.57;;;2.27;;
8139;SDS011;4111;50.972;7.072;2022-09-23T04:24:27;2.60;;;2.40;;
8139;SDS011;4111;50.972;7.072;2022-09-23T04:26:54;2.67;;;2.10;;
8139;SDS011;4111;50.972;7.072;2022-09-23T04:29:22;3.30;;;2.00;;
8139;SDS011;4111;50.972;7.072;2022-09-23T04:31:50;3.43;;;2.57;;
8139;SDS011;4111;50.972;7.072;2022-09-23T04:34:18;2.10;;;1.90;;
8139;SDS011;4111;50.972;7.072;2022-09-23T04:36:45;6.50;;;2.20;;
8139;SDS011;4111;50.972;7.072;2022-09-23T04:39:13;3.60;;;2.30;;
8139;SDS011;4111;50.972;7.072;2022-09-23T04:41:41;3.20;;;2.40;;
8139;SDS011;4111;50.972;7.072;2022-09-23T04:44:09;2.90;;;2.33;;
8139;SDS011;4111;50.972;7.072;2022-09-23T04:46:36;2.97;;;2.23;;
8139;SDS011;4111;50.972;7.072;2022-09-23T04:49:04;2.50;;;2.30;;
8139;SDS011;4111;50.972;7.072;2022-09-23T04:51:31;2.63;;;2.13;;
8139;SDS011;4111;50.972;7.072;2022-09-23T04:53:58;4.00;;;2.40;;
8139;SDS011;4111;50.972;7.072;2022-09-23T04:56:25;3.00;;;2.33;;
8139;SDS011;4111;50.972;7.072;2022-09-23T04:58:53;3.13;;;2.27;;
8139;SDS011;4111;50.972;7.072;2022-09-23T05:01:24;2.43;;;2.23;;
8139;SDS011;4111;50.972;7.072;2022-09-23T05:03:54;6.83;;;2.30;;
8139;SDS011;4111;50.972;7.072;2022-09-23T05:06:28;9.00;;;2.70;;
8139;SDS011;4111;50.972;7.072;2022-09-23T05:08:56;7.83;;;2.60;;
8139;SDS011;4111;50.972;7.072;2022-09-23T05:11:24;7.17;;;2.30;;
8139;SDS011;4111;50.972;7.072;2022-09-23T05:13:52;4.20;;;2.50;;
8139;SDS011;4111;50.972;7.072;2022-09-23T05:16:19;4.10;;;2.50;;
8139;SDS011;4111;50.972;7.072;2022-09-23T05:18:48;9.90;;;2.50;;
8139;SDS011;4111;50.972;7.072;2022-09-23T05:21:16;2.73;;;2.30;;
8139;SDS011;4111;50.972;7.072;2022-09-23T05:23:48;3.13;;;2.60;;
8139;SDS011;4111;50.972;7.072;2022-09-23T05:26:18;2.73;;;2.10;;
8139;SDS011;4111;50.972;7.072;2022-09-23T05:28:46;5.53;;;2.20;;
8139;SDS011;4111;50.972;7.072;2022-09-23T05:31:14;4.83;;;2.20;;
8139;SDS011;4111;50.972;7.072;2022-09-23T05:33:52;3.27;;;2.33;;
8139;SDS011;4111;50.972;7.072;2022-09-23T05:36:22;2.80;;;2.37;;
8139;SDS011;4111;50.972;7.072;2022-09-23T05:38:50;2.10;;;1.97;;
8139;SDS011;4111;50.972;7.072;2022-09-23T05:41:18;2.60;;;2.40;;
8139;SDS011;4111;50.972;7.072;2022-09-23T05:43:48;3.00;;;2.17;;
8139;SDS011;4111;50.972;7.072;2022-09-23T05:46:17;3.50;;;2.57;;
8139;SDS011;4111;50.972;7.072;2022-09-23T05:48:45;5.83;;;2.57;;
8139;SDS011;4111;50.972;7.072;2022-09-23T05:51:13;3.97;;;2.60;;
8139;SDS011;4111;50.972;7.072;2022-09-23T05:53:45;2.87;;;2.40;;
8139;SDS011;4111;50.972;7.072;2022-09-23T05:56:16;3.77;;;2.70;;
8139;SDS011;4111;50.972;7.072;2022-09-23T05:58:44;3.10;;;2.57;;
8139;SDS011;4111;50.972;7.072;2022-09-23T06:01:14;2.53;;;2.33;;
8139;SDS011;4111;50.972;7.072;2022-09-23T06:03:47;4.37;;;2.63;;
8139;SDS011;4111;50.972;7.072;2022-09-23T06:06:14;2.53;;;2.33;;
8139;SDS011;4111;50.972;7.072;2022-09-23T06:08:43;4.50;;;2.70;;
8139;SDS011;4111;50.972;7.072;2022-09-23T06:11:10;3.97;;;2.63;;
8139;SDS011;4111;50.972;7.072;2022-09-23T06:13:37;4.17;;;2.50;;
8139;SDS011;4111;50.972;7.072;2022-09-23T06:16:05;3.27;;;2.73;;
8139;SDS011;4111;50.972;7.072;2022-09-23T06:18:33;3.97;;;2.97;;
8139;SDS011;4111;50.972;7.072;2022-09-23T06:21:01;7.40;;;2.80;;
8139;SDS011;4111;50.972;7.072;2022-09-23T06:23:28;4.47;;;3.20;;
8139;SDS011;4111;50.972;7.072;2022-09-23T06:26:02;3.60;;;3.30;;
8139;SDS011;4111;50.972;7.072;2022-09-23T06:28:31;5.53;;;3.63;;
8139;SDS011;4111;50.972;7.072;2022-09-23T06:30:59;4.47;;;3.93;;
8139;SDS011;4111;50.972;7.072;2022-09-23T06:33:28;5.23;;;4.07;;
8139;SDS011;4111;50.972;7.072;2022-09-23T06:36:03;8.07;;;4.57;;
8139;SDS011;4111;50.972;7.072;2022-09-23T06:38:32;5.00;;;4.50;;
8139;SDS011;4111;50.972;7.072;2022-09-23T06:40:59;5.73;;;5.03;;
8139;SDS011;4111;50.972;7.072;2022-09-23T06:43:28;5.73;;;5.20;;
8139;SDS011;4111;50.972;7.072;2022-09-23T06:45:56;7.67;;;5.00;;
8139;SDS011;4111;50.972;7.072;2022-09-23T06:48:26;6.90;;;5.57;;
8139;SDS011;4111;50.972;7.072;2022-09-23T06:50:56;8.17;;;5.97;;
8139;SDS011;4111;50.972;7.072;2022-09-23T06:53:24;7.87;;;5.40;;
8139;SDS011;4111;50.972;7.072;2022-09-23T06:56:00;7.87;;;5.13;;
8139;SDS011;4111;50.972;7.072;2022-09-23T06:58:29;17.00;;;5.50;;
8139;SDS011;4111;50.972;7.072;2022-09-23T07:01:01;7.67;;;5.13;;
8139;SDS011;4111;50.972;7.072;2022-09-23T07:03:28;6.67;;;4.77;;
8139;SDS011;4111;50.972;7.072;2022-09-23T07:05:57;7.97;;;4.67;;
8139;SDS011;4111;50.972;7.072;2022-09-23T07:08:24;6.57;;;4.37;;
8139;SDS011;4111;50.972;7.072;2022-09-23T07:10:52;11.27;;;4.33;;
8139;SDS011;4111;50.972;7.072;2022-09-23T07:13:20;6.70;;;4.13;;
8139;SDS011;4111;50.972;7.072;2022-09-23T07:15:50;9.70;;;4.20;;
8139;SDS011;4111;50.972;7.072;2022-09-23T07:18:19;5.20;;;4.07;;
8139;SDS011;4111;50.972;7.072;2022-09-23T07:20:48;5.97;;;4.40;;
8139;SDS011;4111;50.972;7.072;2022-09-23T07:23:15;5.60;;;4.03;;
8139;SDS011;4111;50.972;7.072;2022-09-23T07:25:43;6.93;;;4.10;;
8139;SDS011;4111;50.972;7.072;2022-09-23T07:28:12;5.13;;;3.73;;
8139;SDS011;4111;50.972;7.072;2022-09-23T07:30:38;4.67;;;3.73;;
8139;SDS011;4111;50.972;7.072;2022-09-23T07:33:17;6.60;;;3.47;;
8139;SDS011;4111;50.972;7.072;2022-09-23T07:35:57;4.63;;;3.17;;
8139;SDS011;4111;50.972;7.072;2022-09-23T07:38:23;3.53;;;2.37;;
8139;SDS011;4111;50.972;7.072;2022-09-23T07:40:51;6.00;;;2.47;;
8139;SDS011;4111;50.972;7.072;2022-09-23T07:43:18;3.13;;;2.40;;
8139;SDS011;4111;50.972;7.072;2022-09-23T07:45:44;3.53;;;2.27;;
8139;SDS011;4111;50.972;7.072;2022-09-23T07:48:12;2.30;;;2.10;;
8139;SDS011;4111;50.972;7.072;2022-09-23T07:50:39;2.23;;;2.03;;
8139;SDS011;4111;50.972;7.072;2022-09-23T07:53:05;2.37;;;2.00;;
8139;SDS011;4111;50.972;7.072;2022-09-23T07:55:33;4.07;;;1.87;;
8139;SDS011;4111;50.972;7.072;2022-09-23T07:58:00;5.87;;;2.00;;
8139;SDS011;4111;50.972;7.072;2022-09-23T08:00:27;2.53;;;1.90;;
8139;SDS011;4111;50.972;7.072;2022-09-23T08:02:54;3.13;;;1.97;;
8139;SDS011;4111;50.972;7.072;2022-09-23T08:05:20;2.40;;;1.83;;
8139;SDS011;4111;50.972;7.072;2022-09-23T08:07:47;3.70;;;1.87;;
8139;SDS011;4111;50.972;7.072;2022-09-23T08:10:14;2.30;;;2.10;;
8139;SDS011;4111;50.972;7.072;2022-09-23T08:12:46;1.90;;;1.80;;
8139;SDS011;4111;50.972;7.072;2022-09-23T08:15:13;2.10;;;1.90;;
8139;SDS011;4111;50.972;7.072;2022-09-23T08:17:39;2.20;;;2.00;;
8139;SDS011;4111;50.972;7.072;2022-09-23T08:20:05;4.27;;;2.10;;
8139;SDS011;4111;50.972;7.072;2022-09-23T08:22:32;3.33;;;1.93;;
8139;SDS011;4111;50.972;7.072;2022-09-23T08:24:59;2.23;;;1.90;;
8139;SDS011;4111;50.972;7.072;2022-09-23T08:27:25;2.10;;;1.83;;
8139;SDS011;4111;50.972;7.072;2022-09-23T08:29:53;2.27;;;2.00;;
8139;SDS011;4111;50.972;7.072;2022-09-23T08:32:19;2.87;;;2.00;;
8139;SDS011;4111;50.972;7.072;2022-09-23T08:34:46;2.00;;;1.80;;
8139;SDS011;4111;50.972;7.072;2022-09-23T08:37:12;3.90;;;1.97;;
8139;SDS011;4111;50.972;7.072;2022-09-23T08:39:38;4.10;;;2.00;;
8139;SDS011;4111;50.972;7.072;2022-09-23T08:42:18;4.70;;;2.27;;
8139;SDS011;4111;50.972;7.072;2022-09-23T08:44:57;2.87;;;1.63;;
8139;SDS011;4111;50.972;7.072;2022-09-23T08:47:29;2.80;;;2.10;;
8139;SDS011;4111;50.972;7.072;2022-09-23T08:55:22;5.23;;;2.20;;
8139;SDS011;4111;50.972;7.072;2022-09-23T09:00:58;4.30;;;2.07;;
8139;SDS011;4111;50.972;7.072;2022-09-23T09:03:51;3.37;;;2.40;;
8139;SDS011;4111;50.972;7.072;2022-09-23T09:06:27;6.90;;;2.30;;
8139;SDS011;4111;50.972;7.072;2022-09-23T09:14:58;3.90;;;2.10;;
8139;SDS011;4111;50.972;7.072;2022-09-23T09:17:34;3.00;;;2.00;;
8139;SDS011;4111;50.972;7.072;2022-09-23T09:20:07;2.10;;;1.90;;
8139;SDS011;4111;50.972;7.072;2022-09-23T09:22:56;2.40;;;2.17;;
8139;SDS011;4111;50.972;7.072;2022-09-23T09:25:38;2.30;;;2.10;;
8139;SDS011;4111;50.972;7.072;2022-09-23T09:28:13;3.33;;;2.57;;
8139;SDS011;4111;50.972;7.072;2022-09-23T09:30:46;3.43;;;2.27;;
8139;SDS011;4111;50.972;7.072;2022-09-23T09:33:18;1.80;;;1.70;;
8139;SDS011;4111;50.972;7.072;2022-09-23T09:38:35;2.17;;;1.93;;
8139;SDS011;4111;50.972;7.072;2022-09-23T09:41:10;5.63;;;1.90;;
8139;SDS011;4111;50.972;7.072;2022-09-23T09:43:40;5.47;;;2.33;;
8139;SDS011;4111;50.972;7.072;2022-09-23T09:54:55;1.80;;;1.70;;
8139;SDS011;4111;50.972;7.072;2022-09-23T09:57:49;2.20;;;2.00;;
8139;SDS011;4111;50.972;7.072;2022-09-23T10:05:56;2.77;;;2.40;;
8139;SDS011;4111;50.972;7.072;2022-09-23T10:10:58;3.00;;;1.87;;
8139;SDS011;4111;50.972;7.072;2022-09-23T10:13:27;2.00;;;1.70;;
8139;SDS011;4111;50.972;7.072;2022-09-23T10:15:56;3.40;;;2.07;;
8139;SDS011;4111;50.972;7.072;2022-09-23T10:18:38;2.70;;;2.10;;
8139;SDS011;4111;50.972;7.072;2022-09-23T10:21:13;2.77;;;2.03;;
8139;SDS011;4111;50.972;7.072;2022-09-23T10:23:43;2.13;;;1.40;;
8139;SDS011;4111;50.972;7.072;2022-09-23T10:26:12;3.77;;;2.17;;
8139;SDS011;4111;50.972;7.072;2022-09-23T10:28:47;1.97;;;1.50;;
8139;SDS011;4111;50.972;7.072;2022-09-23T10:31:25;2.80;;;1.80;;
8139;SDS011;4111;50.972;7.072;2022-09-23T10:33:54;2.60;;;2.00;;
8139;SDS011;4111;50.972;7.072;2022-09-23T10:36:26;3.07;;;2.07;;
8139;SDS011;4111;50.972;7.072;2022-09-23T10:38:58;6.20;;;1.97;;
8139;SDS011;4111;50.972;7.072;2022-09-23T10:45:33;4.50;;;1.80;;
8139;SDS011;4111;50.972;7.072;2022-09-23T10:50:57;5.27;;;2.50;;
8139;SDS011;4111;50.972;7.072;2022-09-23T10:56:23;1.73;;;1.60;;
8139;SDS011;4111;50.972;7.072;2022-09-23T10:59:17;2.97;;;1.73;;
8139;SDS011;4111;50.972;7.072;2022-09-23T11:07:22;3.10;;;1.90;;
8139;SDS011;4111;50.972;7.072;2022-09-23T11:19:27;1.80;;;1.40;;
8139;SDS011;4111;50.972;7.072;2022-09-23T11:22:05;1.93;;;1.70;;
8139;SDS011;4111;50.972;7.072;2022-09-23T11:27:20;4.40;;;1.50;;
8139;SDS011;4111;50.972;7.072;2022-09-23T11:30:09;5.80;;;1.83;;
8139;SDS011;4111;50.972;7.072;2022-09-23T11:35:51;1.60;;;1.50;;
8139;SDS011;4111;50.972;7.072;2022-09-23T11:38:57;10.07;;;1.73;;
8139;SDS011;4111;50.972;7.072;2022-09-23T11:41:22;1.70;;;1.60;;
8139;SDS011;4111;50.972;7.072;2022-09-23T11:43:54;2.00;;;1.50;;
8139;SDS011;4111;50.972;7.072;2022-09-23T11:46:43;2.57;;;1.50;;
8139;SDS011;4111;50.972;7.072;2022-09-23T11:52:00;4.57;;;1.77;;
8139;SDS011;4111;50.972;7.072;2022-09-23T11:54:34;3.43;;;1.70;;
8139;SDS011;4111;50.972;7.072;2022-09-23T11:57:13;1.53;;;1.43;;
8139;SDS011;4111;50.972;7.072;2022-09-23T11:59:49;3.13;;;1.83;;
8139;SDS011;4111;50.972;7.072;2022-09-23T12:02:31;2.53;;;1.67;;
8139;SDS011;4111;50.972;7.072;2022-09-23T12:05:04;4.20;;;1.50;;
8139;SDS011;4111;50.972;7.072;2022-09-23T12:07:53;1.33;;;1.23;;
8139;SDS011;4111;50.972;7.072;2022-09-23T12:10:24;2.03;;;1.50;;
8139;SDS011;4111;50.972;7.072;2022-09-23T12:13:08;2.83;;;1.50;;
8139;SDS011;4111;50.972;7.072;2022-09-23T12:18:40;1.67;;;1.37;;
8139;SDS011;4111;50.972;7.072;2022-09-23T12:26:53;2.80;;;1.50;;
8139;SDS011;4111;50.972;7.072;2022-09-23T12:29:25;1.60;;;1.50;;
8139;SDS011;4111;50.972;7.072;2022-09-23T12:31:55;2.47;;;1.70;;
8139;SDS011;4111;50.972;7.072;2022-09-23T12:34:55;1.77;;;1.63;;
8139;SDS011;4111;50.972;7.072;2022-09-23T12:37:25;2.73;;;1.40;;
8139;SDS011;4111;50.972;7.072;2022-09-23T12:40:39;1.80;;;1.37;;
8139;SDS011;4111;50.972;7.072;2022-09-23T12:42:56;1.40;;;1.40;;
8139;SDS011;4111;50.972;7.072;2022-09-23T12:56:20;1.53;;;1.30;;
8139;SDS011;4111;50.972;7.072;2022-09-23T13:01:20;1.77;;;1.20;;
8139;SDS011;4111;50.972;7.072;2022-09-23T13:06:39;3.30;;;1.43;;
8139;SDS011;4111;50.972;7.072;2022-09-23T13:09:13;1.93;;;1.50;;
8139;SDS011;4111;50.972;7.072;2022-09-23T13:11:44;4.83;;;1.47;;
8139;SDS011;4111;50.972;7.072;2022-09-23T13:14:16;1.50;;;1.40;;
8139;SDS011;4111;50.972;7.072;2022-09-23T13:16:52;1.40;;;1.30;;
8139;SDS011;4111;50.972;7.072;2022-09-23T13:24:33;1.80;;;1.60;;
8139;SDS011;4111;50.972;7.072;2022-09-23T13:29:30;1.90;;;1.40;;
8139;SDS011;4111;50.972;7.072;2022-09-23T13:32:02;1.63;;;1.53;;
8139;SDS011;4111;50.972;7.072;2022-09-23T13:34:33;2.13;;;1.43;;
8139;SDS011;4111;50.972;7.072;2022-09-23T13:37:21;2.80;;;1.70;;
8139;SDS011;4111;50.972;7.072;2022-09-23T13:39:50;3.47;;;1.63;;
8139;SDS011;4111;50.972;7.072;2022-09-23T13:42:24;2.57;;;1.87;;
8139;SDS011;4111;50.972;7.072;2022-09-23T13:44:53;2.90;;;1.73;;
8139;SDS011;4111;50.972;7.072;2022-09-23T13:47:26;4.13;;;1.63;;
8139;SDS011;4111;50.972;7.072;2022-09-23T13:49:55;2.07;;;1.70;;
8139;SDS011;4111;50.972;7.072;2022-09-23T13:52:25;2.67;;;2.23;;
8139;SDS011;4111;50.972;7.072;2022-09-23T13:54:55;3.00;;;2.50;;
8139;SDS011;4111;50.972;7.072;2022-09-23T13:57:28;2.77;;;1.80;;
8139;SDS011;4111;50.972;7.072;2022-09-23T14:00:00;2.87;;;1.53;;
8139;SDS011;4111;50.972;7.072;2022-09-23T14:02:46;2.30;;;1.43;;
8139;SDS011;4111;50.972;7.072;2022-09-23T14:05:20;1.80;;;1.70;;
8139;SDS011;4111;50.972;7.072;2022-09-23T14:07:49;1.60;;;1.40;;
8139;SDS011;4111;50.972;7.072;2022-09-23T14:10:17;4.13;;;1.70;;
8139;SDS011;4111;50.972;7.072;2022-09-23T14:12:46;1.40;;;1.30;;
8139;SDS011;4111;50.972;7.072;2022-09-23T14:15:16;2.90;;;1.70;;
8139;SDS011;4111;50.972;7.072;2022-09-23T14:17:45;2.90;;;1.80;;
8139;SDS011;4111;50.972;7.072;2022-09-23T14:20:14;2.90;;;1.80;;
8139;SDS011;4111;50.972;7.072;2022-09-23T14:22:42;2.83;;;1.30;;
8139;SDS011;4111;50.972;7.072;2022-09-23T14:25:13;1.63;;;1.53;;
8139;SDS011;4111;50.972;7.072;2022-09-23T14:27:41;4.73;;;1.50;;
8139;SDS011;4111;50.972;7.072;2022-09-23T14:30:13;3.33;;;1.83;;
8139;SDS011;4111;50.972;7.072;2022-09-23T14:32:43;3.47;;;1.80;;
8139;SDS011;4111;50.972;7.072;2022-09-23T14:35:16;2.23;;;1.40;;
8139;SDS011;4111;50.972;7.072;2022-09-23T14:37:45;7.27;;;1.57;;
8139;SDS011;4111;50.972;7.072;2022-09-23T14:40:36;5.57;;;1.77;;
8139;SDS011;4111;50.972;7.072;2022-09-23T14:43:23;1.93;;;1.80;;
8139;SDS011;4111;50.972;7.072;2022-09-23T14:45:54;1.90;;;1.40;;
8139;SDS011;4111;50.972;7.072;2022-09-23T14:48:23;5.43;;;1.70;;
8139;SDS011;4111;50.972;7.072;2022-09-23T14:51:03;2.73;;;2.10;;
8139;SDS011;4111;50.972;7.072;2022-09-23T14:53:42;2.10;;;1.57;;
8139;SDS011;4111;50.972;7.072;2022-09-23T14:56:12;2.57;;;2.37;;
8139;SDS011;4111;50.972;7.072;2022-09-23T14:58:47;6.13;;;1.90;;
8139;SDS011;4111;50.972;7.072;2022-09-23T15:04:08;3.03;;;2.00;;
8139;SDS011;4111;50.972;7.072;2022-09-23T15:06:37;6.23;;;1.70;;
8139;SDS011;4111;50.972;7.072;2022-09-23T15:09:07;3.13;;;2.00;;
8139;SDS011;4111;50.972;7.072;2022-09-23T15:11:41;3.50;;;1.93;;
8139;SDS011;4111;50.972;7.072;2022-09-23T15:14:08;2.03;;;1.90;;
8139;SDS011;4111;50.972;7.072;2022-09-23T15:16:55;3.23;;;1.80;;
8139;SDS011;4111;50.972;7.072;2022-09-23T15:19:22;4.07;;;2.03;;
8139;SDS011;4111;50.972;7.072;2022-09-23T15:21:49;3.53;;;1.70;;
8139;SDS011;4111;50.972;7.072;2022-09-23T15:27:39;2.97;;;1.50;;
8139;SDS011;4111;50.972;7.072;2022-09-23T15:30:18;2.23;;;1.53;;
8139;SDS011;4111;50.972;7.072;2022-09-23T15:32:45;4.67;;;1.90;;
8139;SDS011;4111;50.972;7.072;2022-09-23T15:35:16;1.90;;;1.70;;
8139;SDS011;4111;50.972;7.072;2022-09-23T15:37:45;1.83;;;1.50;;
8139;SDS011;4111;50.972;7.072;2022-09-23T15:40:17;2.63;;;1.80;;
8139;SDS011;4111;50.972;7.072;2022-09-23T15:42:46;2.90;;;1.67;;
8139;SDS011;4111;50.972;7.072;2022-09-23T15:45:17;8.67;;;2.27;;
8139;SDS011;4111;50.972;7.072;2022-09-23T15:47:47;2.27;;;1.83;;
8139;SDS011;4111;50.972;7.072;2022-09-23T15:50:15;4.17;;;2.10;;
8139;SDS011;4111;50.972;7.072;2022-09-23T15:52:42;2.90;;;2.00;;
8139;SDS011;4111;50.972;7.072;2022-09-23T15:55:15;3.80;;;2.00;;
8139;SDS011;4111;50.972;7.072;2022-09-23T15:57:44;5.87;;;2.23;;
8139;SDS011;4111;50.972;7.072;2022-09-23T16:00:10;3.10;;;2.23;;
8139;SDS011;4111;50.972;7.072;2022-09-23T16:02:38;6.80;;;2.53;;
8139;SDS011;4111;50.972;7.072;2022-09-23T16:05:06;3.90;;;2.60;;
8139;SDS011;4111;50.972;7.072;2022-09-23T16:07:40;3.57;;;2.50;;
8139;SDS011;4111;50.972;7.072;2022-09-23T16:10:06;6.93;;;2.20;;
8139;SDS011;4111;50.972;7.072;2022-09-23T16:12:33;2.77;;;2.00;;
8139;SDS011;4111;50.972;7.072;2022-09-23T16:14:59;2.97;;;2.67;;
8139;SDS011;4111;50.972;7.072;2022-09-23T16:17:26;3.50;;;2.40;;
8139;SDS011;4111;50.972;7.072;2022-09-23T16:19:53;2.57;;;2.37;;
8139;SDS011;4111;50.972;7.072;2022-09-23T16:22:19;4.57;;;2.83;;
8139;SDS011;4111;50.972;7.072;2022-09-23T16:24:46;5.93;;;2.60;;
8139;SDS011;4111;50.972;7.072;2022-09-23T16:27:12;3.60;;;2.73;;
8139;SDS011;4111;50.972;7.072;2022-09-23T16:29:43;6.53;;;2.70;;
8139;SDS011;4111;50.972;7.072;2022-09-23T16:32:09;2.60;;;2.20;;
8139;SDS011;4111;50.972;7.072;2022-09-23T16:34:36;5.73;;;2.70;;
8139;SDS011;4111;50.972;7.072;2022-09-23T16:37:02;4.20;;;2.63;;
8139;SDS011;4111;50.972;7.072;2022-09-23T16:39:29;3.10;;;2.50;;
8139;SDS011;4111;50.972;7.072;2022-09-23T16:41:56;3.77;;;2.53;;
8139;SDS011;4111;50.972;7.072;2022-09-23T16:44:23;6.03;;;2.43;;
8139;SDS011;4111;50.972;7.072;2022-09-23T16:46:50;4.57;;;2.47;;
8139;SDS011;4111;50.972;7.072;2022-09-23T16:49:16;3.50;;;2.43;;
8139;SDS011;4111;50.972;7.072;2022-09-23T16:51:43;8.03;;;3.27;;
8139;SDS011;4111;50.972;7.072;2022-09-23T16:54:10;4.07;;;3.10;;
8139;SDS011;4111;50.972;7.072;2022-09-23T16:56:38;3.30;;;2.83;;
8139;SDS011;4111;50.972;7.072;2022-09-23T16:59:10;4.30;;;2.60;;
8139;SDS011;4111;50.972;7.072;2022-09-23T17:01:37;3.13;;;2.83;;
8139;SDS011;4111;50.972;7.072;2022-09-23T17:04:23;3.47;;;3.10;;
8139;SDS011;4111;50.972;7.072;2022-09-23T17:06:50;3.80;;;3.50;;
8139;SDS011;4111;50.972;7.072;2022-09-23T17:09:18;5.33;;;2.83;;
8139;SDS011;4111;50.972;7.072;2022-09-23T17:11:46;3.80;;;2.83;;
8139;SDS011;4111;50.972;7.072;2022-09-23T17:14:34;3.73;;;3.07;;
8139;SDS011;4111;50.972;7.072;2022-09-23T17:17:00;3.53;;;3.23;;
8139;SDS011;4111;50.972;7.072;2022-09-23T17:19:27;4.33;;;3.17;;
8139;SDS011;4111;50.972;7.072;2022-09-23T17:21:54;3.77;;;3.37;;
8139;SDS011;4111;50.972;7.072;2022-09-23T17:24:20;9.37;;;5.40;;
8139;SDS011;4111;50.972;7.072;2022-09-23T17:26:47;10.03;;;6.00;;
8139;SDS011;4111;50.972;7.072;2022-09-23T17:29:18;10.23;;;7.23;;
8139;SDS011;4111;50.972;7.072;2022-09-23T17:31:45;9.17;;;6.83;;
8139;SDS011;4111;50.972;7.072;2022-09-23T17:34:11;9.17;;;5.83;;
8139;SDS011;4111;50.972;7.072;2022-09-23T17:36:38;9.10;;;6.30;;
8139;SDS011;4111;50.972;7.072;2022-09-23T17:39:05;12.30;;;6.20;;
8139;SDS011;4111;50.972;7.072;2022-09-23T17:41:32;8.77;;;6.17;;
8139;SDS011;4111;50.972;7.072;2022-09-23T17:43:58;8.27;;;5.60;;
8139;SDS011;4111;50.972;7.072;2022-09-23T17:46:25;7.47;;;5.43;;
8139;SDS011;4111;50.972;7.072;2022-09-23T17:48:53;7.87;;;5.00;;
8139;SDS011;4111;50.972;7.072;2022-09-23T17:51:21;6.83;;;5.20;;
8139;SDS011;4111;50.972;7.072;2022-09-23T17:53:49;6.27;;;5.17;;
8139;SDS011;4111;50.972;7.072;2022-09-23T17:56:16;6.70;;;5.00;;
8139;SDS011;4111;50.972;7.072;2022-09-23T17:58:47;8.13;;;5.70;;
8139;SDS011;4111;50.972;7.072;2022-09-23T18:01:24;11.50;;;5.60;;
8139;SDS011;4111;50.972;7.072;2022-09-23T18:03:58;8.47;;;6.07;;
8139;SDS011;4111;50.972;7.072;2022-09-23T18:06:26;9.27;;;6.53;;
8139;SDS011;4111;50.972;7.072;2022-09-23T18:08:57;7.97;;;5.60;;
8139;SDS011;4111;50.972;7.072;2022-09-23T18:11:27;9.73;;;5.53;;
8139;SDS011;4111;50.972;7.072;2022-09-23T18:13:56;9.77;;;5.50;;
8139;SDS011;4111;50.972;7.072;2022-09-23T18:16:25;7.47;;;5.30;;
8139;SDS011;4111;50.972;7.072;2022-09-23T18:18:57;8.10;;;5.33;;
8139;SDS011;4111;50.972;7.072;2022-09-23T18:21:26;8.07;;;5.73;;